sensor_id;sensor_type;location;lat;lon;timestamp;P1;durP1;ratioP1;P2;durP2;ratioP2
56401;SDS011;42299;35.160;26.100;2023-02-11T00:01:05;8.23;;;4.70;;
56401;SDS011;42299;35.160;26.100;2023-02-11T00:02:27;6.95;;;4.03;;
56401;SDS011;42299;35.160;26.100;2023-02-11T00:03:51;7.90;;;4.10;;
56401;SDS011;42299;35.160;26.100;2023-02-11T00:05:14;8.27;;;4.75;;
56401;SDS011;42299;35.160;26.100;2023-02-11T00:06:37;7.28;;;4.68;;
56401;SDS011;42299;35.160;26.100;2023-02-11T00:07:59;7.88;;;4.25;;
56401;SDS011;42299;35.160;26.100;2023-02-11T00:09:20;7.38;;;4.57;;
56401;SDS011;42299;35.160;26.100;2023-02-11T00:10:42;7.40;;;4.28;;
56401;SDS011;42299;35.160;26.100;2023-02-11T00:12:05;7.57;;;4.40;;
56401;SDS011;42299;35.160;26.100;2023-02-11T00:13:28;7.55;;;4.45;;
56401;SDS011;42299;35.160;26.100;2023-02-11T00:14:49;7.13;;;4.55;;
56401;SDS011;42299;35.160;26.100;2023-02-11T00:16:13;8.98;;;5.57;;
56401;SDS011;42299;35.160;26.100;2023-02-11T00:17:36;6.88;;;4.30;;
56401;SDS011;42299;35.160;26.100;2023-02-11T00:18:58;7.35;;;4.63;;
56401;SDS011;42299;35.160;26.100;2023-02-11T00:20:21;7.95;;;5.22;;
56401;SDS011;42299;35.160;26.100;2023-02-11T00:21:46;7.65;;;4.63;;
56401;SDS011;42299;35.160;26.100;2023-02-11T00:23:09;7.43;;;4.40;;
56401;SDS011;42299;35.160;26.100;2023-02-11T00:24:31;8.45;;;4.85;;
56401;SDS011;42299;35.160;26.100;2023-02-11T00:25:53;7.28;;;4.43;;
56401;SDS011;42299;35.160;26.100;2023-02-11T00:27:15;8.25;;;4.60;;
56401;SDS011;42299;35.160;26.100;2023-02-11T00:28:37;6.85;;;4.20;;
56401;SDS011;42299;35.160;26.100;2023-02-11T00:30:01;7.72;;;4.60;;
56401;SDS011;42299;35.160;26.100;2023-02-11T00:31:24;9.13;;;4.88;;
56401;SDS011;42299;35.160;26.100;2023-02-11T00:32:47;7.97;;;4.60;;
56401;SDS011;42299;35.160;26.100;2023-02-11T00:34:10;7.93;;;5.07;;
56401;SDS011;42299;35.160;26.100;2023-02-11T00:35:32;8.43;;;4.75;;
56401;SDS011;42299;35.160;26.100;2023-02-11T00:36:57;6.65;;;4.32;;
56401;SDS011;42299;35.160;26.100;2023-02-11T00:38:19;7.55;;;4.53;;
56401;SDS011;42299;35.160;26.100;2023-02-11T00:39:41;8.70;;;4.47;;
56401;SDS011;42299;35.160;26.100;2023-02-11T00:41:03;8.88;;;4.72;;
56401;SDS011;42299;35.160;26.100;2023-02-11T00:42:25;6.95;;;4.60;;
56401;SDS011;42299;35.160;26.100;2023-02-11T00:43:47;7.50;;;4.65;;
56401;SDS011;42299;35.160;26.100;2023-02-11T00:45:12;9.38;;;4.13;;
56401;SDS011;42299;35.160;26.100;2023-02-11T00:46:35;6.78;;;4.32;;
56401;SDS011;42299;35.160;26.100;2023-02-11T00:47:57;8.10;;;5.07;;
56401;SDS011;42299;35.160;26.100;2023-02-11T00:49:18;6.70;;;4.68;;
56401;SDS011;42299;35.160;26.100;2023-02-11T00:50:42;7.07;;;4.75;;
56401;SDS011;42299;35.160;26.100;2023-02-11T00:52:05;10.63;;;5.07;;
56401;SDS011;42299;35.160;26.100;2023-02-11T00:53:28;6.00;;;3.80;;
56401;SDS011;42299;35.160;26.100;2023-02-11T00:54:50;5.93;;;3.67;;
56401;SDS011;42299;35.160;26.100;2023-02-11T00:56:13;7.20;;;4.15;;
56401;SDS011;42299;35.160;26.100;2023-02-11T00:57:34;7.32;;;4.55;;
56401;SDS011;42299;35.160;26.100;2023-02-11T00:58:57;6.35;;;4.28;;
56401;SDS011;42299;35.160;26.100;2023-02-11T01:00:20;9.00;;;4.60;;
56401;SDS011;42299;35.160;26.100;2023-02-11T01:01:42;7.20;;;4.32;;
56401;SDS011;42299;35.160;26.100;2023-02-11T01:03:07;9.18;;;4.45;;
56401;SDS011;42299;35.160;26.100;2023-02-11T01:04:30;9.38;;;5.25;;
56401;SDS011;42299;35.160;26.100;2023-02-11T01:05:54;8.55;;;4.93;;
56401;SDS011;42299;35.160;26.100;2023-02-11T01:07:18;8.68;;;5.80;;
56401;SDS011;42299;35.160;26.100;2023-02-11T01:08:42;7.25;;;5.40;;
56401;SDS011;42299;35.160;26.100;2023-02-11T01:10:07;7.03;;;4.43;;
56401;SDS011;42299;35.160;26.100;2023-02-11T01:11:28;7.53;;;4.60;;
56401;SDS011;42299;35.160;26.100;2023-02-11T01:12:51;9.18;;;5.78;;
56401;SDS011;42299;35.160;26.100;2023-02-11T01:14:13;10.93;;;7.10;;
56401;SDS011;42299;35.160;26.100;2023-02-11T01:15:36;10.27;;;6.72;;
56401;SDS011;42299;35.160;26.100;2023-02-11T01:16:57;9.13;;;5.68;;
56401;SDS011;42299;35.160;26.100;2023-02-11T01:18:19;12.13;;;7.40;;
56401;SDS011;42299;35.160;26.100;2023-02-11T01:19:42;8.55;;;5.55;;
56401;SDS011;42299;35.160;26.100;2023-02-11T01:21:05;9.70;;;5.43;;
56401;SDS011;42299;35.160;26.100;2023-02-11T01:22:28;9.38;;;5.38;;
56401;SDS011;42299;35.160;26.100;2023-02-11T01:23:51;11.70;;;7.28;;
56401;SDS011;42299;35.160;26.100;2023-02-11T01:25:13;8.18;;;4.95;;
56401;SDS011;42299;35.160;26.100;2023-02-11T01:26:34;11.52;;;6.47;;
56401;SDS011;42299;35.160;26.100;2023-02-11T01:27:57;9.55;;;6.00;;
56401;SDS011;42299;35.160;26.100;2023-02-11T01:29:18;7.90;;;4.80;;
56401;SDS011;42299;35.160;26.100;2023-02-11T01:30:40;8.25;;;5.13;;
56401;SDS011;42299;35.160;26.100;2023-02-11T01:32:01;8.65;;;5.07;;
56401;SDS011;42299;35.160;26.100;2023-02-11T01:33:24;8.52;;;5.30;;
56401;SDS011;42299;35.160;26.100;2023-02-11T01:34:45;7.30;;;4.22;;
56401;SDS011;42299;35.160;26.100;2023-02-11T01:36:07;8.52;;;5.03;;
56401;SDS011;42299;35.160;26.100;2023-02-11T01:37:33;8.75;;;4.70;;
56401;SDS011;42299;35.160;26.100;2023-02-11T01:38:55;7.00;;;4.45;;
56401;SDS011;42299;35.160;26.100;2023-02-11T01:40:17;7.25;;;4.13;;
56401;SDS011;42299;35.160;26.100;2023-02-11T01:41:39;8.60;;;6.82;;
56401;SDS011;42299;35.160;26.100;2023-02-11T01:43:01;13.90;;;9.13;;
56401;SDS011;42299;35.160;26.100;2023-02-11T01:44:24;10.88;;;7.40;;
56401;SDS011;42299;35.160;26.100;2023-02-11T01:45:58;7.85;;;5.35;;
56401;SDS011;42299;35.160;26.100;2023-02-11T01:47:24;9.90;;;5.43;;
56401;SDS011;42299;35.160;26.100;2023-02-11T01:48:46;6.60;;;4.63;;
56401;SDS011;42299;35.160;26.100;2023-02-11T01:50:14;8.82;;;5.40;;
56401;SDS011;42299;35.160;26.100;2023-02-11T01:51:36;7.15;;;4.63;;
56401;SDS011;42299;35.160;26.100;2023-02-11T01:53:04;10.40;;;6.32;;
56401;SDS011;42299;35.160;26.100;2023-02-11T01:54:40;10.27;;;5.90;;
56401;SDS011;42299;35.160;26.100;2023-02-11T01:56:23;44.63;;;24.50;;
56401;SDS011;42299;35.160;26.100;2023-02-11T01:58:05;34.63;;;18.05;;
56401;SDS011;42299;35.160;26.100;2023-02-11T01:59:30;20.25;;;9.07;;
56401;SDS011;42299;35.160;26.100;2023-02-11T02:00:54;219.10;;;86.80;;
56401;SDS011;42299;35.160;26.100;2023-02-11T02:02:19;98.05;;;41.10;;
56401;SDS011;42299;35.160;26.100;2023-02-11T02:03:44;106.65;;;44.78;;
56401;SDS011;42299;35.160;26.100;2023-02-11T02:05:14;107.50;;;47.95;;
56401;SDS011;42299;35.160;26.100;2023-02-11T02:06:47;56.35;;;24.80;;
56401;SDS011;42299;35.160;26.100;2023-02-11T02:08:18;207.18;;;96.72;;
56401;SDS011;42299;35.160;26.100;2023-02-11T02:09:50;53.05;;;26.98;;
56401;SDS011;42299;35.160;26.100;2023-02-11T02:11:19;128.32;;;62.85;;
56401;SDS011;42299;35.160;26.100;2023-02-11T02:12:43;147.20;;;73.72;;
56401;SDS011;42299;35.160;26.100;2023-02-11T02:14:05;92.65;;;47.15;;
56401;SDS011;42299;35.160;26.100;2023-02-11T02:15:28;69.70;;;37.47;;
56401;SDS011;42299;35.160;26.100;2023-02-11T02:16:56;52.15;;;28.10;;
56401;SDS011;42299;35.160;26.100;2023-02-11T02:18:23;36.10;;;18.67;;
56401;SDS011;42299;35.160;26.100;2023-02-11T02:22:25;69.97;;;40.88;;
56401;SDS011;42299;35.160;26.100;2023-02-11T02:26:20;51.30;;;32.00;;
56401;SDS011;42299;35.160;26.100;2023-02-11T02:28:10;52.58;;;38.00;;
56401;SDS011;42299;35.160;26.100;2023-02-11T02:30:00;34.17;;;27.63;;
56401;SDS011;42299;35.160;26.100;2023-02-11T02:31:43;21.35;;;17.15;;
56401;SDS011;42299;35.160;26.100;2023-02-11T02:33:25;18.02;;;15.13;;
56401;SDS011;42299;35.160;26.100;2023-02-11T02:34:55;12.10;;;9.82;;
56401;SDS011;42299;35.160;26.100;2023-02-11T02:36:22;12.70;;;10.35;;
56401;SDS011;42299;35.160;26.100;2023-02-11T02:37:54;10.60;;;7.78;;
56401;SDS011;42299;35.160;26.100;2023-02-11T02:39:23;12.00;;;8.25;;
56401;SDS011;42299;35.160;26.100;2023-02-11T02:40:56;11.18;;;7.95;;
56401;SDS011;42299;35.160;26.100;2023-02-11T02:42:21;8.50;;;5.72;;
56401;SDS011;42299;35.160;26.100;2023-02-11T02:43:47;8.27;;;5.38;;
56401;SDS011;42299;35.160;26.100;2023-02-11T02:45:09;7.80;;;4.97;;
56401;SDS011;42299;35.160;26.100;2023-02-11T02:46:32;11.02;;;5.82;;
56401;SDS011;42299;35.160;26.100;2023-02-11T02:47:54;11.13;;;5.75;;
56401;SDS011;42299;35.160;26.100;2023-02-11T02:49:18;8.45;;;5.85;;
56401;SDS011;42299;35.160;26.100;2023-02-11T02:50:41;11.68;;;6.85;;
56401;SDS011;42299;35.160;26.100;2023-02-11T02:52:15;11.77;;;6.18;;
56401;SDS011;42299;35.160;26.100;2023-02-11T02:53:49;9.20;;;6.05;;
56401;SDS011;42299;35.160;26.100;2023-02-11T02:55:22;8.38;;;5.68;;
56401;SDS011;42299;35.160;26.100;2023-02-11T02:56:55;10.07;;;6.57;;
56401;SDS011;42299;35.160;26.100;2023-02-11T03:00:39;9.70;;;5.72;;
56401;SDS011;42299;35.160;26.100;2023-02-11T03:02:08;12.38;;;5.35;;
56401;SDS011;42299;35.160;26.100;2023-02-11T03:03:37;11.50;;;5.30;;
56401;SDS011;42299;35.160;26.100;2023-02-11T03:05:10;9.25;;;5.35;;
56401;SDS011;42299;35.160;26.100;2023-02-11T03:06:41;10.85;;;5.50;;
56401;SDS011;42299;35.160;26.100;2023-02-11T03:08:08;9.10;;;5.05;;
56401;SDS011;42299;35.160;26.100;2023-02-11T03:09:38;10.20;;;5.65;;
56401;SDS011;42299;35.160;26.100;2023-02-11T03:11:07;9.57;;;5.38;;
56401;SDS011;42299;35.160;26.100;2023-02-11T03:12:30;9.85;;;4.97;;
56401;SDS011;42299;35.160;26.100;2023-02-11T03:13:55;11.45;;;6.50;;
56401;SDS011;42299;35.160;26.100;2023-02-11T03:15:19;9.43;;;5.38;;
56401;SDS011;42299;35.160;26.100;2023-02-11T03:16:44;8.07;;;5.35;;
56401;SDS011;42299;35.160;26.100;2023-02-11T03:18:10;10.43;;;5.65;;
56401;SDS011;42299;35.160;26.100;2023-02-11T03:19:36;11.23;;;6.63;;
56401;SDS011;42299;35.160;26.100;2023-02-11T03:21:03;12.48;;;6.45;;
56401;SDS011;42299;35.160;26.100;2023-02-11T03:22:29;10.70;;;6.90;;
56401;SDS011;42299;35.160;26.100;2023-02-11T03:23:55;11.15;;;6.18;;
56401;SDS011;42299;35.160;26.100;2023-02-11T03:25:20;9.15;;;5.70;;
56401;SDS011;42299;35.160;26.100;2023-02-11T03:26:50;11.98;;;5.85;;
56401;SDS011;42299;35.160;26.100;2023-02-11T03:28:14;10.23;;;6.13;;
56401;SDS011;42299;35.160;26.100;2023-02-11T03:29:48;11.27;;;5.72;;
56401;SDS011;42299;35.160;26.100;2023-02-11T03:31:15;10.18;;;5.38;;
56401;SDS011;42299;35.160;26.100;2023-02-11T03:32:42;8.80;;;5.32;;
56401;SDS011;42299;35.160;26.100;2023-02-11T03:34:12;8.52;;;5.32;;
56401;SDS011;42299;35.160;26.100;2023-02-11T03:35:40;7.22;;;4.70;;
56401;SDS011;42299;35.160;26.100;2023-02-11T03:37:11;9.13;;;5.68;;
56401;SDS011;42299;35.160;26.100;2023-02-11T03:38:37;11.13;;;6.18;;
56401;SDS011;42299;35.160;26.100;2023-02-11T03:40:05;10.52;;;5.85;;
56401;SDS011;42299;35.160;26.100;2023-02-11T03:41:30;12.27;;;6.07;;
56401;SDS011;42299;35.160;26.100;2023-02-11T03:42:57;8.85;;;5.32;;
56401;SDS011;42299;35.160;26.100;2023-02-11T03:44:20;10.18;;;5.90;;
56401;SDS011;42299;35.160;26.100;2023-02-11T03:45:47;14.07;;;6.00;;
56401;SDS011;42299;35.160;26.100;2023-02-11T03:47:13;9.98;;;5.53;;
56401;SDS011;42299;35.160;26.100;2023-02-11T03:48:41;10.20;;;5.20;;
56401;SDS011;42299;35.160;26.100;2023-02-11T03:50:06;8.48;;;4.90;;
56401;SDS011;42299;35.160;26.100;2023-02-11T03:51:31;10.05;;;5.25;;
56401;SDS011;42299;35.160;26.100;2023-02-11T03:52:55;8.27;;;5.13;;
56401;SDS011;42299;35.160;26.100;2023-02-11T03:54:20;9.73;;;5.30;;
56401;SDS011;42299;35.160;26.100;2023-02-11T03:55:46;10.73;;;5.95;;
56401;SDS011;42299;35.160;26.100;2023-02-11T03:57:09;12.00;;;5.70;;
56401;SDS011;42299;35.160;26.100;2023-02-11T03:58:31;12.63;;;6.85;;
56401;SDS011;42299;35.160;26.100;2023-02-11T03:59:54;9.98;;;5.70;;
56401;SDS011;42299;35.160;26.100;2023-02-11T04:01:16;9.65;;;5.95;;
56401;SDS011;42299;35.160;26.100;2023-02-11T04:02:39;8.68;;;5.03;;
56401;SDS011;42299;35.160;26.100;2023-02-11T04:04:03;9.55;;;4.65;;
56401;SDS011;42299;35.160;26.100;2023-02-11T04:05:25;11.23;;;4.63;;
56401;SDS011;42299;35.160;26.100;2023-02-11T04:06:47;9.77;;;5.43;;
56401;SDS011;42299;35.160;26.100;2023-02-11T04:08:10;8.98;;;5.55;;
56401;SDS011;42299;35.160;26.100;2023-02-11T04:09:33;9.60;;;4.97;;
56401;SDS011;42299;35.160;26.100;2023-02-11T04:10:54;12.30;;;5.53;;
56401;SDS011;42299;35.160;26.100;2023-02-11T04:12:18;13.95;;;5.57;;
56401;SDS011;42299;35.160;26.100;2023-02-11T04:13:43;8.38;;;5.20;;
56401;SDS011;42299;35.160;26.100;2023-02-11T04:15:06;9.75;;;5.22;;
56401;SDS011;42299;35.160;26.100;2023-02-11T04:16:29;8.63;;;5.30;;
56401;SDS011;42299;35.160;26.100;2023-02-11T04:17:55;8.93;;;5.00;;
56401;SDS011;42299;35.160;26.100;2023-02-11T04:19:22;12.77;;;5.55;;
56401;SDS011;42299;35.160;26.100;2023-02-11T04:20:47;8.82;;;4.72;;
56401;SDS011;42299;35.160;26.100;2023-02-11T04:22:11;9.18;;;5.20;;
56401;SDS011;42299;35.160;26.100;2023-02-11T04:23:36;10.30;;;5.38;;
56401;SDS011;42299;35.160;26.100;2023-02-11T04:25:00;9.27;;;5.47;;
56401;SDS011;42299;35.160;26.100;2023-02-11T04:26:23;8.80;;;4.90;;
56401;SDS011;42299;35.160;26.100;2023-02-11T04:27:45;8.25;;;4.97;;
56401;SDS011;42299;35.160;26.100;2023-02-11T04:29:07;10.43;;;5.18;;
56401;SDS011;42299;35.160;26.100;2023-02-11T04:30:29;9.00;;;5.22;;
56401;SDS011;42299;35.160;26.100;2023-02-11T04:31:51;8.80;;;4.95;;
56401;SDS011;42299;35.160;26.100;2023-02-11T04:33:13;9.75;;;5.82;;
56401;SDS011;42299;35.160;26.100;2023-02-11T04:34:34;10.40;;;5.13;;
56401;SDS011;42299;35.160;26.100;2023-02-11T04:35:57;10.48;;;5.75;;
56401;SDS011;42299;35.160;26.100;2023-02-11T04:37:18;9.57;;;5.32;;
56401;SDS011;42299;35.160;26.100;2023-02-11T04:38:42;10.55;;;6.72;;
56401;SDS011;42299;35.160;26.100;2023-02-11T04:40:04;28.55;;;10.30;;
56401;SDS011;42299;35.160;26.100;2023-02-11T04:41:26;69.93;;;22.38;;
56401;SDS011;42299;35.160;26.100;2023-02-11T04:42:49;54.70;;;16.65;;
56401;SDS011;42299;35.160;26.100;2023-02-11T04:44:13;44.25;;;15.63;;
56401;SDS011;42299;35.160;26.100;2023-02-11T04:45:35;15.85;;;7.63;;
56401;SDS011;42299;35.160;26.100;2023-02-11T04:46:58;12.93;;;6.65;;
56401;SDS011;42299;35.160;26.100;2023-02-11T04:48:19;14.20;;;7.43;;
56401;SDS011;42299;35.160;26.100;2023-02-11T04:49:42;9.90;;;6.32;;
56401;SDS011;42299;35.160;26.100;2023-02-11T04:51:03;9.35;;;6.15;;
56401;SDS011;42299;35.160;26.100;2023-02-11T04:52:26;10.82;;;6.70;;
56401;SDS011;42299;35.160;26.100;2023-02-11T04:53:49;10.30;;;5.97;;
56401;SDS011;42299;35.160;26.100;2023-02-11T04:55:11;9.98;;;5.50;;
56401;SDS011;42299;35.160;26.100;2023-02-11T04:56:33;8.73;;;5.22;;
56401;SDS011;42299;35.160;26.100;2023-02-11T04:57:55;8.45;;;5.30;;
56401;SDS011;42299;35.160;26.100;2023-02-11T04:59:17;9.73;;;5.72;;
56401;SDS011;42299;35.160;26.100;2023-02-11T05:00:38;8.98;;;5.15;;
56401;SDS011;42299;35.160;26.100;2023-02-11T05:02:01;9.30;;;5.13;;
56401;SDS011;42299;35.160;26.100;2023-02-11T05:03:23;11.00;;;5.55;;
56401;SDS011;42299;35.160;26.100;2023-02-11T05:04:45;10.18;;;6.85;;
56401;SDS011;42299;35.160;26.100;2023-02-11T05:06:08;12.70;;;5.90;;
56401;SDS011;42299;35.160;26.100;2023-02-11T05:07:31;8.38;;;5.20;;
56401;SDS011;42299;35.160;26.100;2023-02-11T05:08:55;11.30;;;5.55;;
56401;SDS011;42299;35.160;26.100;2023-02-11T05:10:17;9.32;;;5.10;;
56401;SDS011;42299;35.160;26.100;2023-02-11T05:11:39;7.60;;;4.75;;
56401;SDS011;42299;35.160;26.100;2023-02-11T05:13:01;10.50;;;5.57;;
56401;SDS011;42299;35.160;26.100;2023-02-11T05:14:23;7.45;;;4.63;;
56401;SDS011;42299;35.160;26.100;2023-02-11T05:15:45;10.93;;;4.97;;
56401;SDS011;42299;35.160;26.100;2023-02-11T05:17:07;10.85;;;5.25;;
56401;SDS011;42299;35.160;26.100;2023-02-11T05:18:29;10.75;;;4.90;;
56401;SDS011;42299;35.160;26.100;2023-02-11T05:19:50;10.13;;;5.30;;
56401;SDS011;42299;35.160;26.100;2023-02-11T05:21:13;12.23;;;4.68;;
56401;SDS011;42299;35.160;26.100;2023-02-11T05:22:37;10.02;;;5.40;;
56401;SDS011;42299;35.160;26.100;2023-02-11T05:24:00;11.15;;;5.70;;
56401;SDS011;42299;35.160;26.100;2023-02-11T05:25:22;10.18;;;6.15;;
56401;SDS011;42299;35.160;26.100;2023-02-11T05:26:43;9.50;;;6.20;;
56401;SDS011;42299;35.160;26.100;2023-02-11T05:28:06;7.82;;;5.15;;
56401;SDS011;42299;35.160;26.100;2023-02-11T05:29:27;11.30;;;6.68;;
56401;SDS011;42299;35.160;26.100;2023-02-11T05:30:49;9.38;;;5.10;;
56401;SDS011;42299;35.160;26.100;2023-02-11T05:32:10;9.18;;;5.68;;
56401;SDS011;42299;35.160;26.100;2023-02-11T05:33:33;10.57;;;6.25;;
56401;SDS011;42299;35.160;26.100;2023-02-11T05:34:55;9.88;;;5.95;;
56401;SDS011;42299;35.160;26.100;2023-02-11T05:36:16;10.70;;;6.07;;
56401;SDS011;42299;35.160;26.100;2023-02-11T05:37:38;11.82;;;7.60;;
56401;SDS011;42299;35.160;26.100;2023-02-11T05:39:01;12.23;;;6.97;;
56401;SDS011;42299;35.160;26.100;2023-02-11T05:40:24;10.70;;;5.78;;
56401;SDS011;42299;35.160;26.100;2023-02-11T05:41:46;9.75;;;5.85;;
56401;SDS011;42299;35.160;26.100;2023-02-11T05:43:08;10.90;;;6.32;;
56401;SDS011;42299;35.160;26.100;2023-02-11T05:44:31;12.07;;;6.45;;
56401;SDS011;42299;35.160;26.100;2023-02-11T05:45:53;11.15;;;7.63;;
56401;SDS011;42299;35.160;26.100;2023-02-11T05:47:14;9.20;;;4.80;;
56401;SDS011;42299;35.160;26.100;2023-02-11T05:48:36;9.18;;;5.07;;
56401;SDS011;42299;35.160;26.100;2023-02-11T05:49:58;11.48;;;5.18;;
56401;SDS011;42299;35.160;26.100;2023-02-11T05:51:20;9.48;;;5.22;;
56401;SDS011;42299;35.160;26.100;2023-02-11T05:52:41;10.10;;;5.47;;
56401;SDS011;42299;35.160;26.100;2023-02-11T05:54:05;9.35;;;4.95;;
56401;SDS011;42299;35.160;26.100;2023-02-11T05:55:27;9.73;;;5.10;;
56401;SDS011;42299;35.160;26.100;2023-02-11T05:56:48;8.52;;;5.40;;
56401;SDS011;42299;35.160;26.100;2023-02-11T05:58:11;9.65;;;5.35;;
56401;SDS011;42299;35.160;26.100;2023-02-11T05:59:32;10.55;;;4.78;;
56401;SDS011;42299;35.160;26.100;2023-02-11T06:00:55;9.80;;;4.55;;
56401;SDS011;42299;35.160;26.100;2023-02-11T06:02:16;9.90;;;5.07;;
56401;SDS011;42299;35.160;26.100;2023-02-11T06:03:38;9.55;;;4.65;;
56401;SDS011;42299;35.160;26.100;2023-02-11T06:05:01;10.60;;;5.07;;
56401;SDS011;42299;35.160;26.100;2023-02-11T06:06:22;10.68;;;5.35;;
56401;SDS011;42299;35.160;26.100;2023-02-11T06:07:45;11.85;;;7.00;;
56401;SDS011;42299;35.160;26.100;2023-02-11T06:09:08;11.73;;;7.10;;
56401;SDS011;42299;35.160;26.100;2023-02-11T06:10:31;10.45;;;5.80;;
56401;SDS011;42299;35.160;26.100;2023-02-11T06:11:53;8.30;;;5.05;;
56401;SDS011;42299;35.160;26.100;2023-02-11T06:13:15;10.90;;;6.00;;
56401;SDS011;42299;35.160;26.100;2023-02-11T06:14:39;11.82;;;5.82;;
56401;SDS011;42299;35.160;26.100;2023-02-11T06:16:03;12.05;;;6.85;;
56401;SDS011;42299;35.160;26.100;2023-02-11T06:17:26;10.40;;;5.22;;
56401;SDS011;42299;35.160;26.100;2023-02-11T06:18:51;53.15;;;27.35;;
56401;SDS011;42299;35.160;26.100;2023-02-11T06:20:13;23.70;;;14.13;;
56401;SDS011;42299;35.160;26.100;2023-02-11T06:21:35;16.33;;;12.48;;
56401;SDS011;42299;35.160;26.100;2023-02-11T06:22:57;9.05;;;5.72;;
56401;SDS011;42299;35.160;26.100;2023-02-11T06:24:19;9.95;;;5.50;;
56401;SDS011;42299;35.160;26.100;2023-02-11T06:25:42;10.88;;;4.78;;
56401;SDS011;42299;35.160;26.100;2023-02-11T06:27:03;8.45;;;5.38;;
56401;SDS011;42299;35.160;26.100;2023-02-11T06:28:26;6.85;;;4.05;;
56401;SDS011;42299;35.160;26.100;2023-02-11T06:29:50;8.25;;;5.07;;
56401;SDS011;42299;35.160;26.100;2023-02-11T06:31:12;10.68;;;6.50;;
56401;SDS011;42299;35.160;26.100;2023-02-11T06:32:35;8.13;;;5.28;;
56401;SDS011;42299;35.160;26.100;2023-02-11T06:33:56;10.73;;;5.72;;
56401;SDS011;42299;35.160;26.100;2023-02-11T06:35:19;8.30;;;5.28;;
56401;SDS011;42299;35.160;26.100;2023-02-11T06:36:41;14.60;;;7.25;;
56401;SDS011;42299;35.160;26.100;2023-02-11T06:38:03;9.38;;;6.03;;
56401;SDS011;42299;35.160;26.100;2023-02-11T06:39:27;8.30;;;5.57;;
56401;SDS011;42299;35.160;26.100;2023-02-11T06:40:49;9.27;;;6.93;;
56401;SDS011;42299;35.160;26.100;2023-02-11T06:42:10;12.15;;;7.00;;
56401;SDS011;42299;35.160;26.100;2023-02-11T06:43:33;8.88;;;6.00;;
56401;SDS011;42299;35.160;26.100;2023-02-11T06:44:54;9.55;;;6.68;;
56401;SDS011;42299;35.160;26.100;2023-02-11T06:46:16;9.27;;;5.97;;
56401;SDS011;42299;35.160;26.100;2023-02-11T06:47:39;7.72;;;4.80;;
56401;SDS011;42299;35.160;26.100;2023-02-11T06:49:01;7.72;;;4.60;;
56401;SDS011;42299;35.160;26.100;2023-02-11T06:50:23;12.45;;;5.35;;
56401;SDS011;42299;35.160;26.100;2023-02-11T06:51:45;11.77;;;6.90;;
56401;SDS011;42299;35.160;26.100;2023-02-11T06:53:08;9.05;;;5.50;;
56401;SDS011;42299;35.160;26.100;2023-02-11T06:54:31;8.20;;;5.60;;
56401;SDS011;42299;35.160;26.100;2023-02-11T06:55:54;9.25;;;5.30;;
56401;SDS011;42299;35.160;26.100;2023-02-11T06:57:16;10.18;;;5.30;;
56401;SDS011;42299;35.160;26.100;2023-02-11T06:58:38;8.80;;;4.95;;
56401;SDS011;42299;35.160;26.100;2023-02-11T07:00:01;29.63;;;14.55;;
56401;SDS011;42299;35.160;26.100;2023-02-11T07:01:24;61.08;;;22.00;;
56401;SDS011;42299;35.160;26.100;2023-02-11T07:02:50;11.48;;;6.60;;
56401;SDS011;42299;35.160;26.100;2023-02-11T07:04:26;11.23;;;5.43;;
56401;SDS011;42299;35.160;26.100;2023-02-11T07:05:48;9.23;;;5.75;;
56401;SDS011;42299;35.160;26.100;2023-02-11T07:07:11;13.60;;;6.70;;
56401;SDS011;42299;35.160;26.100;2023-02-11T07:08:34;11.85;;;6.00;;
56401;SDS011;42299;35.160;26.100;2023-02-11T07:10:02;10.68;;;5.43;;
56401;SDS011;42299;35.160;26.100;2023-02-11T07:11:27;10.57;;;6.93;;
56401;SDS011;42299;35.160;26.100;2023-02-11T07:12:52;10.55;;;6.60;;
56401;SDS011;42299;35.160;26.100;2023-02-11T07:14:14;12.82;;;7.63;;
56401;SDS011;42299;35.160;26.100;2023-02-11T07:15:37;10.10;;;6.43;;
56401;SDS011;42299;35.160;26.100;2023-02-11T07:16:59;9.85;;;6.40;;
56401;SDS011;42299;35.160;26.100;2023-02-11T07:18:23;13.35;;;7.20;;
56401;SDS011;42299;35.160;26.100;2023-02-11T07:19:45;11.07;;;6.40;;
56401;SDS011;42299;35.160;26.100;2023-02-11T07:21:08;10.68;;;7.90;;
56401;SDS011;42299;35.160;26.100;2023-02-11T07:22:32;10.32;;;7.25;;
56401;SDS011;42299;35.160;26.100;2023-02-11T07:23:55;10.68;;;7.50;;
56401;SDS011;42299;35.160;26.100;2023-02-11T07:25:18;8.70;;;5.65;;
56401;SDS011;42299;35.160;26.100;2023-02-11T07:26:40;7.20;;;4.53;;
56401;SDS011;42299;35.160;26.100;2023-02-11T07:28:02;7.18;;;4.22;;
56401;SDS011;42299;35.160;26.100;2023-02-11T07:29:25;6.97;;;4.13;;
56401;SDS011;42299;35.160;26.100;2023-02-11T07:30:46;6.47;;;3.85;;
56401;SDS011;42299;35.160;26.100;2023-02-11T07:32:09;9.90;;;5.20;;
56401;SDS011;42299;35.160;26.100;2023-02-11T07:33:31;7.95;;;4.80;;
56401;SDS011;42299;35.160;26.100;2023-02-11T07:34:52;7.90;;;4.03;;
56401;SDS011;42299;35.160;26.100;2023-02-11T07:36:14;7.63;;;4.85;;
56401;SDS011;42299;35.160;26.100;2023-02-11T07:37:36;11.80;;;6.40;;
56401;SDS011;42299;35.160;26.100;2023-02-11T07:38:58;12.32;;;7.60;;
56401;SDS011;42299;35.160;26.100;2023-02-11T07:40:21;7.93;;;6.43;;
56401;SDS011;42299;35.160;26.100;2023-02-11T07:41:43;10.82;;;7.53;;
56401;SDS011;42299;35.160;26.100;2023-02-11T07:43:07;10.50;;;5.13;;
56401;SDS011;42299;35.160;26.100;2023-02-11T07:44:28;8.13;;;5.20;;
56401;SDS011;42299;35.160;26.100;2023-02-11T07:45:52;9.13;;;5.57;;
56401;SDS011;42299;35.160;26.100;2023-02-11T07:47:13;10.43;;;6.55;;
56401;SDS011;42299;35.160;26.100;2023-02-11T07:48:36;10.40;;;6.13;;
56401;SDS011;42299;35.160;26.100;2023-02-11T07:49:58;9.68;;;7.35;;
56401;SDS011;42299;35.160;26.100;2023-02-11T07:51:21;8.10;;;4.60;;
56401;SDS011;42299;35.160;26.100;2023-02-11T07:52:44;10.48;;;6.90;;
56401;SDS011;42299;35.160;26.100;2023-02-11T07:54:06;10.05;;;6.28;;
56401;SDS011;42299;35.160;26.100;2023-02-11T07:55:30;8.38;;;6.05;;
56401;SDS011;42299;35.160;26.100;2023-02-11T07:56:54;9.18;;;5.47;;
56401;SDS011;42299;35.160;26.100;2023-02-11T07:58:15;7.65;;;6.35;;
56401;SDS011;42299;35.160;26.100;2023-02-11T07:59:37;8.32;;;5.30;;
56401;SDS011;42299;35.160;26.100;2023-02-11T08:01:00;12.32;;;7.05;;
56401;SDS011;42299;35.160;26.100;2023-02-11T08:02:22;11.45;;;6.15;;
56401;SDS011;42299;35.160;26.100;2023-02-11T08:03:44;10.40;;;6.68;;
56401;SDS011;42299;35.160;26.100;2023-02-11T08:05:07;12.43;;;8.85;;
56401;SDS011;42299;35.160;26.100;2023-02-11T08:06:30;9.65;;;6.78;;
56401;SDS011;42299;35.160;26.100;2023-02-11T08:07:53;8.77;;;5.78;;
56401;SDS011;42299;35.160;26.100;2023-02-11T08:09:15;11.40;;;7.63;;
56401;SDS011;42299;35.160;26.100;2023-02-11T08:10:39;9.77;;;7.10;;
56401;SDS011;42299;35.160;26.100;2023-02-11T08:12:01;9.88;;;7.07;;
56401;SDS011;42299;35.160;26.100;2023-02-11T08:13:24;12.38;;;5.90;;
56401;SDS011;42299;35.160;26.100;2023-02-11T08:14:47;8.60;;;4.70;;
56401;SDS011;42299;35.160;26.100;2023-02-11T08:16:09;11.02;;;5.53;;
56401;SDS011;42299;35.160;26.100;2023-02-11T08:17:39;10.20;;;6.15;;
56401;SDS011;42299;35.160;26.100;2023-02-11T08:19:03;11.05;;;6.20;;
56401;SDS011;42299;35.160;26.100;2023-02-11T08:20:25;9.05;;;5.10;;
56401;SDS011;42299;35.160;26.100;2023-02-11T08:21:48;8.77;;;5.57;;